TimeMYT,TemperatureF,Dew PointF,Humidity,Sea Level PressureIn,VisibilityMPH,Wind Direction,Wind SpeedMPH,Gust SpeedMPH,PrecipitationIn,Events,Conditions,WindDirDegrees,DateUTC
12:00 AM,80.6,75.2,84,0.00,6.2,NNW,3.5,-,N/A,,Mostly Cloudy,330,2012-10-28 16:00:00
1:00 AM,78.8,75.2,89,0.00,6.2,WNW,3.5,-,N/A,,Mostly Cloudy,300,2012-10-28 17:00:00
2:00 AM,75.2,75.2,100,0.00,6.2,West,4.6,-,N/A,,Mostly Cloudy,280,2012-10-28 18:00:00
3:00 AM,75.2,73.4,94,0.00,6.2,West,4.6,-,N/A,,Mostly Cloudy,270,2012-10-28 19:00:00
4:00 AM,77.0,75.2,94,0.00,6.2,NNW,4.6,-,N/A,,Mostly Cloudy,330,2012-10-28 20:00:00
5:00 AM,77.0,75.2,94,0.00,6.2,WNW,3.5,-,N/A,,Mostly Cloudy,300,2012-10-28 21:00:00
6:00 AM,75.2,73.4,94,0.00,6.2,West,4.6,-,N/A,,Mostly Cloudy,260,2012-10-28 22:00:00
7:00 AM,73.4,73.4,100,0.00,5.0,WSW,5.8,-,N/A,,Mostly Cloudy,250,2012-10-28 23:00:00
8:00 AM,75.2,73.4,94,0.00,5.0,WSW,4.6,-,N/A,,Mostly Cloudy,250,2012-10-29 00:00:00
9:00 AM,80.6,75.2,84,0.00,6.2,North,1.2,-,N/A,,Mostly Cloudy,10,2012-10-29 01:00:00
11:00 AM,87.8,77.0,70,0.00,6.2,NE,5.8,-,N/A,,Mostly Cloudy,40,2012-10-29 03:00:00
12:00 PM,87.8,77.0,70,0.00,6.2,NE,5.8,-,N/A,,Mostly Cloudy,40,2012-10-29 04:00:00
1:00 PM,87.8,75.2,66,0.00,6.2,NE,5.8,-,N/A,,Mostly Cloudy,40,2012-10-29 05:00:00
2:00 PM,87.8,77.0,70,0.00,6.2,NE,3.5,-,N/A,,Mostly Cloudy,40,2012-10-29 06:00:00
3:00 PM,87.8,75.2,66,0.00,6.2,NNE,5.8,-,N/A,,Mostly Cloudy,30,2012-10-29 07:00:00
4:00 PM,89.6,77.0,66,0.00,6.2,ENE,6.9,-,N/A,,Mostly Cloudy,60,2012-10-29 08:00:00
5:00 PM,87.8,77.0,70,0.00,6.2,NE,6.9,-,N/A,,Mostly Cloudy,50,2012-10-29 09:00:00
6:00 PM,84.2,77.0,79,0.00,6.2,NE,5.8,-,N/A,,Mostly Cloudy,50,2012-10-29 10:00:00
7:00 PM,80.6,77.0,89,0.00,6.2,NE,13.8,-,N/A,Rain,Light Rain,50,2012-10-29 11:00:00
8:00 PM,80.6,77.0,89,0.00,6.2,NNE,6.9,-,N/A,,Mostly Cloudy,30,2012-10-29 12:00:00
10:00 PM,80.6,75.2,84,0.00,6.2,NW,3.5,-,N/A,,Mostly Cloudy,320,2012-10-29 14:00:00
11:00 PM,80.6,75.2,84,0.00,6.2,NW,5.8,-,N/A,,Mostly Cloudy,320,2012-10-29 15:00:00